Time,TemperatureF,DewpointF,PressureIn,WindDirection,WindDirectionDegrees,WindSpeedMPH,WindSpeedGustMPH,Humidity,HourlyPrecipIn,Conditions,Clouds,dailyrainin,SoftwareType,DateUTC
2013-04-25 00:00:00,47.0,42.7,29.94,West,259,3.0,3.0,85,0.00,,,0.20,Wunderground v.1.15,2013-04-25 04:00:00,
2013-04-25 00:10:00,46.8,42.5,29.95,NW,315,3.0,6.0,85,0.00,,,0.00,Wunderground v.1.15,2013-04-25 04:10:00,
2013-04-25 00:20:00,46.5,42.2,29.95,NNW,327,3.0,4.0,85,0.00,,,0.00,Wunderground v.1.15,2013-04-25 04:20:00,
2013-04-25 00:30:00,46.0,41.4,29.96,North,9,3.0,3.0,84,0.00,,,0.00,Wunderground v.1.15,2013-04-25 04:30:00,
2013-04-25 00:40:00,45.1,40.2,29.96,WNW,302,5.0,5.0,83,0.00,,,0.00,Wunderground v.1.15,2013-04-25 04:40:00,
2013-04-25 00:50:00,44.3,38.8,29.96,NNW,346,7.0,8.0,81,0.00,,,0.00,Wunderground v.1.15,2013-04-25 04:50:00,
2013-04-25 01:00:00,43.8,38.3,29.96,North,355,7.0,7.0,81,0.00,,,0.00,Wunderground v.1.15,2013-04-25 05:00:00,
2013-04-25 01:10:00,43.5,38.4,29.96,NNW,332,5.0,5.0,82,0.00,,,0.00,Wunderground v.1.15,2013-04-25 05:10:00,
2013-04-25 01:20:00,43.2,38.1,29.96,NNW,337,5.0,5.0,82,0.00,,,0.00,Wunderground v.1.15,2013-04-25 05:20:00,
2013-04-25 01:30:00,43.0,37.6,29.97,NE,56,4.0,4.0,81,0.00,,,0.00,Wunderground v.1.15,2013-04-25 05:30:00,
2013-04-25 01:40:00,42.8,37.4,29.97,WNW,298,2.0,4.0,81,0.00,,,0.00,Wunderground v.1.15,2013-04-25 05:40:00,
2013-04-25 01:50:00,42.6,37.5,29.96,NW,321,3.0,3.0,82,0.00,,,0.00,Wunderground v.1.15,2013-04-25 05:50:00,
2013-04-25 02:00:00,42.3,36.9,29.97,NW,305,3.0,3.0,81,0.00,,,0.00,Wunderground v.1.15,2013-04-25 06:00:00,
2013-04-25 02:10:00,41.9,36.2,29.97,WNW,287,4.0,5.0,80,0.00,,,0.00,Wunderground v.1.15,2013-04-25 06:10:00,
2013-04-25 02:20:00,41.5,35.8,29.96,NNW,327,4.0,4.0,80,0.00,,,0.00,Wunderground v.1.15,2013-04-25 06:20:00,
2013-04-25 02:30:00,41.2,35.2,29.96,North,5,4.0,4.0,79,0.00,,,0.00,Wunderground v.1.15,2013-04-25 06:30:00,
2013-04-25 02:40:00,41.0,35.3,29.97,WNW,299,3.0,3.0,80,0.00,,,0.00,Wunderground v.1.15,2013-04-25 06:40:00,
2013-04-25 02:50:00,40.8,35.1,29.97,NW,314,1.0,1.0,80,0.00,,,0.00,Wunderground v.1.15,2013-04-25 06:50:00,
2013-04-25 03:00:00,40.7,35.3,29.97,NNW,343,2.0,2.0,81,0.00,,,0.00,Wunderground v.1.15,2013-04-25 07:00:00,
2013-04-25 03:10:00,40.7,35.3,29.97,NNW,336,4.0,4.0,81,0.00,,,0.00,Wunderground v.1.15,2013-04-25 07:10:00,
2013-04-25 03:20:00,40.4,35.0,29.98,NW,307,3.0,7.0,81,0.00,,,0.00,Wunderground v.1.15,2013-04-25 07:20:00,
2013-04-25 03:30:00,40.1,34.1,29.98,NNW,342,4.0,4.0,79,0.00,,,0.00,Wunderground v.1.15,2013-04-25 07:30:00,
2013-04-25 03:40:00,39.7,33.7,29.99,NNE,30,4.0,4.0,79,0.00,,,0.00,Wunderground v.1.15,2013-04-25 07:40:00,
2013-04-25 03:50:00,39.5,33.2,29.99,NNW,340,2.0,2.0,78,0.00,,,0.00,Wunderground v.1.15,2013-04-25 07:50:00,
2013-04-25 04:00:00,39.2,32.9,30.00,North,9,1.0,1.0,78,0.00,,,0.00,Wunderground v.1.15,2013-04-25 08:00:00,
2013-04-25 04:10:00,38.9,32.6,30.00,NW,313,2.0,2.0,78,0.00,,,0.00,Wunderground v.1.15,2013-04-25 08:10:00,
2013-04-25 04:20:00,38.7,32.4,30.00,NW,322,2.0,2.0,78,0.00,,,0.00,Wunderground v.1.15,2013-04-25 08:20:00,
2013-04-25 04:30:00,38.4,32.1,30.01,NW,319,2.0,2.0,78,0.00,,,0.00,Wunderground v.1.15,2013-04-25 08:30:00,
2013-04-25 04:40:00,38.2,31.9,30.01,NNW,347,2.0,4.0,78,0.00,,,0.00,Wunderground v.1.15,2013-04-25 08:40:00,
2013-04-25 04:50:00,38.0,31.7,30.01,North,350,1.0,1.0,78,0.00,,,0.00,Wunderground v.1.15,2013-04-25 08:50:00,
2013-04-25 05:00:00,37.7,31.5,30.02,NNW,328,1.0,2.0,78,0.00,,,0.00,Wunderground v.1.15,2013-04-25 09:00:00,
2013-04-25 05:10:00,37.4,30.8,30.03,NW,306,2.0,11.0,77,0.00,,,0.00,Wunderground v.1.15,2013-04-25 09:10:00,
2013-04-25 05:20:00,37.2,30.7,30.03,NE,46,2.0,2.0,77,0.00,,,0.00,Wunderground v.1.15,2013-04-25 09:20:00,
2013-04-25 05:30:00,37.0,30.5,30.03,NNE,26,1.0,1.0,77,0.00,,,0.00,Wunderground v.1.15,2013-04-25 09:30:00,
2013-04-25 05:40:00,36.9,30.7,30.03,West,268,0.0,0.0,78,0.00,,,0.00,Wunderground v.1.15,2013-04-25 09:40:00,
2013-04-25 05:50:00,36.7,30.5,30.04,NNW,329,0.0,0.0,78,0.00,,,0.00,Wunderground v.1.15,2013-04-25 09:50:00,
2013-04-25 06:00:00,36.4,30.5,30.04,NNW,327,0.0,0.0,79,0.00,,,0.00,Wunderground v.1.15,2013-04-25 10:00:00,
2013-04-25 06:10:00,36.2,30.3,30.05,NE,38,1.0,1.0,79,0.00,,,0.00,Wunderground v.1.15,2013-04-25 10:10:00,
2013-04-25 06:20:00,36.1,30.2,30.05,NNE,33,1.0,1.0,79,0.00,,,0.00,Wunderground v.1.15,2013-04-25 10:20:00,
2013-04-25 06:30:00,36.0,30.1,30.06,NE,56,1.0,1.0,79,0.00,,,0.00,Wunderground v.1.15,2013-04-25 10:30:00,
2013-04-25 06:40:00,35.9,30.0,30.06,North,11,1.0,1.0,79,0.00,,,0.00,Wunderground v.1.15,2013-04-25 10:40:00,
2013-04-25 06:50:00,35.9,30.0,30.06,North,10,0.0,1.0,79,0.00,,,0.00,Wunderground v.1.15,2013-04-25 10:50:00,
2013-04-25 07:00:00,35.9,30.0,30.07,North,10,0.0,0.0,79,0.00,,,0.00,Wunderground v.1.15,2013-04-25 11:00:00,
2013-04-25 07:10:00,36.0,30.1,30.08,North,10,0.0,0.0,79,0.00,,,0.00,Wunderground v.1.15,2013-04-25 11:10:00,
2013-04-25 07:20:00,36.0,30.4,30.08,North,10,0.0,0.0,80,0.00,,,0.00,Wunderground v.1.15,2013-04-25 11:20:00,
2013-04-25 07:30:00,36.0,30.4,30.09,North,10,0.0,0.0,80,0.00,,,0.00,Wunderground v.1.15,2013-04-25 11:30:00,
2013-04-25 07:40:00,36.1,30.8,30.10,North,10,0.0,0.0,81,0.00,,,0.00,Wunderground v.1.15,2013-04-25 11:40:00,
2013-04-25 07:50:00,36.4,30.8,30.10,North,11,0.0,0.0,80,0.00,,,0.00,Wunderground v.1.15,2013-04-25 11:50:00,
2013-04-25 08:00:00,36.6,30.7,30.11,North,10,0.0,0.0,79,0.00,,,0.00,Wunderground v.1.15,2013-04-25 12:00:00,
2013-04-25 08:10:00,37.2,31.0,30.12,North,11,1.0,1.0,78,0.00,,,0.00,Wunderground v.1.15,2013-04-25 12:10:00,
2013-04-25 08:20:00,37.6,31.0,30.12,NNE,12,1.0,1.0,77,0.00,,,0.00,Wunderground v.1.15,2013-04-25 12:20:00,
2013-04-25 08:30:00,38.4,31.8,30.13,North,11,0.0,0.0,77,0.00,,,0.00,Wunderground v.1.15,2013-04-25 12:30:00,
2013-04-25 08:40:00,39.1,31.8,30.13,ENE,73,0.0,0.0,75,0.00,,,0.00,Wunderground v.1.15,2013-04-25 12:40:00,
2013-04-25 08:50:00,39.8,32.2,30.13,ENE,71,0.0,1.0,74,0.00,,,0.00,Wunderground v.1.15,2013-04-25 12:50:00,
2013-04-25 09:00:00,40.1,31.8,30.14,NNE,26,2.0,2.0,72,0.00,,,0.00,Wunderground v.1.15,2013-04-25 13:00:00,
2013-04-25 09:10:00,40.1,31.4,30.14,NNW,331,1.0,1.0,71,0.00,,,0.00,Wunderground v.1.15,2013-04-25 13:10:00,
2013-04-25 09:20:00,40.4,31.7,30.14,NW,322,0.0,0.0,71,0.00,,,0.00,Wunderground v.1.15,2013-04-25 13:20:00,
2013-04-25 09:30:00,40.9,31.9,30.14,WNW,282,1.0,2.0,70,0.00,,,0.00,Wunderground v.1.15,2013-04-25 13:30:00,
2013-04-25 09:40:00,41.1,31.7,30.14,NW,318,1.0,1.0,69,0.00,,,0.00,Wunderground v.1.15,2013-04-25 13:40:00,
2013-04-25 09:50:00,41.8,32.7,30.14,NNW,336,0.0,0.0,70,0.00,,,0.00,Wunderground v.1.15,2013-04-25 13:50:00,
2013-04-25 10:00:00,42.7,32.9,30.14,NNE,17,1.0,1.0,68,0.00,,,0.00,Wunderground v.1.15,2013-04-25 14:00:00,
2013-04-25 10:10:00,43.2,33.3,30.14,ENE,67,1.0,1.0,68,0.00,,,0.00,Wunderground v.1.15,2013-04-25 14:10:00,
2013-04-25 10:20:00,43.7,33.1,30.14,NE,40,1.0,1.0,66,0.00,,,0.00,Wunderground v.1.15,2013-04-25 14:20:00,
2013-04-25 10:30:00,44.5,35.0,30.14,West,259,0.0,0.0,69,0.00,,,0.00,Wunderground v.1.15,2013-04-25 14:30:00,
2013-04-25 10:40:00,45.3,34.2,30.14,West,275,1.0,1.0,65,0.00,,,0.00,Wunderground v.1.15,2013-04-25 14:40:00,
2013-04-25 10:50:00,45.6,33.7,30.15,SSW,198,1.0,1.0,63,0.00,,,0.00,Wunderground v.1.15,2013-04-25 14:50:00,
2013-04-25 11:00:00,46.5,35.4,30.15,WNW,296,2.0,2.0,65,0.00,,,0.00,Wunderground v.1.15,2013-04-25 15:00:00,
2013-04-25 11:10:00,47.4,34.6,30.15,SSW,211,3.0,3.0,61,0.00,,,0.00,Wunderground v.1.15,2013-04-25 15:10:00,
2013-04-25 11:20:00,48.2,35.4,30.15,West,271,1.0,4.0,61,0.00,,,0.00,Wunderground v.1.15,2013-04-25 15:20:00,
2013-04-25 11:30:00,48.6,35.3,30.16,NNE,30,2.0,2.0,60,0.00,,,0.00,Wunderground v.1.15,2013-04-25 15:30:00,
2013-04-25 11:40:00,49.4,34.8,30.15,NNE,20,2.0,2.0,57,0.00,,,0.00,Wunderground v.1.15,2013-04-25 15:40:00,
2013-04-25 11:50:00,49.7,34.2,30.15,NNE,33,2.0,4.0,55,0.00,,,0.00,Wunderground v.1.15,2013-04-25 15:50:00,
2013-04-25 12:00:00,50.6,35.5,30.15,NNE,22,2.0,3.0,56,0.00,,,0.00,Wunderground v.1.15,2013-04-25 16:00:00,
2013-04-25 12:10:00,51.0,37.6,30.15,West,280,1.0,1.0,60,0.00,,,0.00,Wunderground v.1.15,2013-04-25 16:10:00,
2013-04-25 12:20:00,52.3,35.7,30.15,NE,55,2.0,2.0,53,0.00,,,0.00,Wunderground v.1.15,2013-04-25 16:20:00,
2013-04-25 12:30:00,52.4,36.2,30.15,NNW,327,3.0,3.0,54,0.00,,,0.00,Wunderground v.1.15,2013-04-25 16:30:00,
2013-04-25 12:40:00,52.4,35.3,30.15,NW,325,2.0,2.0,52,0.00,,,0.00,Wunderground v.1.15,2013-04-25 16:40:00,
2013-04-25 12:50:00,53.0,36.8,30.14,WNW,292,3.0,3.0,54,0.00,,,0.00,Wunderground v.1.15,2013-04-25 16:50:00,
2013-04-25 13:00:00,53.9,36.7,30.14,NNW,338,2.0,2.0,52,0.00,,,0.00,Wunderground v.1.15,2013-04-25 17:00:00,
2013-04-25 13:10:00,54.2,34.4,30.14,West,265,2.0,5.0,47,0.00,,,0.00,Wunderground v.1.15,2013-04-25 17:10:00,
2013-04-25 13:20:00,55.2,33.6,30.14,NNW,342,2.0,5.0,44,0.00,,,0.00,Wunderground v.1.15,2013-04-25 17:20:00,
2013-04-25 13:30:00,56.1,33.9,30.14,NW,318,2.0,2.0,43,0.00,,,0.00,Wunderground v.1.15,2013-04-25 17:30:00,
2013-04-25 13:40:00,57.1,35.9,30.14,NNE,17,2.0,2.0,45,0.00,,,0.00,Wunderground v.1.15,2013-04-25 17:40:00,
2013-04-25 13:50:00,56.6,34.3,30.14,WSW,250,2.0,3.0,43,0.00,,,0.00,Wunderground v.1.15,2013-04-25 17:50:00,
2013-04-25 14:00:00,56.4,33.6,30.14,SW,226,2.0,2.0,42,0.00,,,0.00,Wunderground v.1.15,2013-04-25 18:00:00,
2013-04-25 14:10:00,58.1,33.2,30.13,NNE,16,2.0,2.0,39,0.00,,,0.00,Wunderground v.1.15,2013-04-25 18:10:00,
2013-04-25 14:20:00,58.4,34.8,30.13,West,279,2.0,2.0,41,0.00,,,0.00,Wunderground v.1.15,2013-04-25 18:20:00,
2013-04-25 14:30:00,58.5,28.7,30.13,NW,304,2.0,2.0,32,0.00,,,0.00,Wunderground v.1.15,2013-04-25 18:30:00,
2013-04-25 14:40:00,59.5,31.8,30.13,NNW,329,1.0,1.0,35,0.00,,,0.00,Wunderground v.1.15,2013-04-25 18:40:00,
2013-04-25 14:50:00,61.0,32.4,30.13,NW,323,3.0,5.0,34,0.00,,,0.00,Wunderground v.1.15,2013-04-25 18:50:00,
2013-04-25 15:00:00,60.8,27.5,30.13,NW,319,3.0,3.0,28,0.00,,,0.00,Wunderground v.1.15,2013-04-25 19:00:00,
2013-04-25 15:10:00,60.7,27.4,30.12,SSW,209,4.0,4.0,28,0.00,,,0.00,Wunderground v.1.15,2013-04-25 19:10:00,
2013-04-25 15:20:00,61.2,30.3,30.12,WSW,257,3.0,3.0,31,0.00,,,0.00,Wunderground v.1.15,2013-04-25 19:20:00,
2013-04-25 15:30:00,60.9,30.0,30.12,NW,317,3.0,3.0,31,0.00,,,0.00,Wunderground v.1.15,2013-04-25 19:30:00,
2013-04-25 15:40:00,61.4,32.0,30.12,NW,306,3.0,5.0,33,0.00,,,0.00,Wunderground v.1.15,2013-04-25 19:40:00,
2013-04-25 15:50:00,61.5,35.0,30.12,NW,320,3.0,3.0,37,0.00,,,0.00,Wunderground v.1.15,2013-04-25 19:50:00,
2013-04-25 16:00:00,61.6,31.4,30.11,NW,313,3.0,3.0,32,0.00,,,0.00,Wunderground v.1.15,2013-04-25 20:00:00,
2013-04-25 16:10:00,62.0,32.5,30.11,NNW,331,3.0,8.0,33,0.00,,,0.00,Wunderground v.1.15,2013-04-25 20:10:00,
2013-04-25 16:20:00,62.2,34.2,30.10,North,360,3.0,3.0,35,0.00,,,0.00,Wunderground v.1.15,2013-04-25 20:20:00,
2013-04-25 16:30:00,62.9,36.2,30.10,SE,130,2.0,2.0,37,0.00,,,0.00,Wunderground v.1.15,2013-04-25 20:30:00,
2013-04-25 16:40:00,62.5,33.7,30.10,West,263,3.0,3.0,34,0.00,,,0.00,Wunderground v.1.15,2013-04-25 20:40:00,
2013-04-25 16:50:00,62.5,33.7,30.10,NNW,338,3.0,4.0,34,0.00,,,0.00,Wunderground v.1.15,2013-04-25 20:50:00,
2013-04-25 17:00:00,61.8,31.6,30.10,NW,325,4.0,4.0,32,0.00,,,0.00,Wunderground v.1.15,2013-04-25 21:00:00,
2013-04-25 17:10:00,61.6,33.7,30.10,NNE,12,2.0,2.0,35,0.00,,,0.00,Wunderground v.1.15,2013-04-25 21:10:00,
2013-04-25 17:20:00,61.9,33.9,30.10,NNE,24,2.0,3.0,35,0.00,,,0.00,Wunderground v.1.15,2013-04-25 21:20:00,
2013-04-25 17:30:00,62.6,32.3,30.10,NNW,338,1.0,9.0,32,0.00,,,0.00,Wunderground v.1.15,2013-04-25 21:30:00,